sensor_id;sensor_type;location;lat;lon;timestamp;P1;durP1;ratioP1;P2;durP2;ratioP2
36789;SDS011;22740;52.182;8.780;2023-12-07T00:05:46;154.13;;;142.52;;
36789;SDS011;22740;52.182;8.780;2023-12-07T00:11:48;159.73;;;147.68;;
36789;SDS011;22740;52.182;8.780;2023-12-07T00:17:50;162.43;;;150.20;;
36789;SDS011;22740;52.182;8.780;2023-12-07T00:23:52;162.15;;;149.88;;
36789;SDS011;22740;52.182;8.780;2023-12-07T00:29:54;164.93;;;151.95;;
36789;SDS011;22740;52.182;8.780;2023-12-07T00:35:56;161.38;;;149.25;;
36789;SDS011;22740;52.182;8.780;2023-12-07T00:41:58;165.77;;;153.27;;
36789;SDS011;22740;52.182;8.780;2023-12-07T00:48:01;160.63;;;148.13;;
36789;SDS011;22740;52.182;8.780;2023-12-07T00:54:03;164.23;;;151.55;;
36789;SDS011;22740;52.182;8.780;2023-12-07T01:00:06;164.27;;;151.70;;
36789;SDS011;22740;52.182;8.780;2023-12-07T01:06:09;167.80;;;155.13;;
36789;SDS011;22740;52.182;8.780;2023-12-07T01:12:14;166.77;;;153.82;;
36789;SDS011;22740;52.182;8.780;2023-12-07T01:18:18;170.40;;;157.00;;
36789;SDS011;22740;52.182;8.780;2023-12-07T01:24:20;166.90;;;154.00;;
36789;SDS011;22740;52.182;8.780;2023-12-07T01:30:22;166.40;;;153.60;;
36789;SDS011;22740;52.182;8.780;2023-12-07T01:36:24;164.98;;;152.10;;
36789;SDS011;22740;52.182;8.780;2023-12-07T01:42:27;164.88;;;151.93;;
36789;SDS011;22740;52.182;8.780;2023-12-07T01:48:29;163.50;;;151.13;;
36789;SDS011;22740;52.182;8.780;2023-12-07T01:54:31;166.35;;;153.60;;
36789;SDS011;22740;52.182;8.780;2023-12-07T02:00:34;164.00;;;151.27;;
36789;SDS011;22740;52.182;8.780;2023-12-07T02:06:36;164.90;;;152.30;;
36789;SDS011;22740;52.182;8.780;2023-12-07T02:12:38;161.18;;;148.90;;
36789;SDS011;22740;52.182;8.780;2023-12-07T02:18:43;159.75;;;147.45;;
36789;SDS011;22740;52.182;8.780;2023-12-07T02:25:36;160.32;;;147.75;;
36789;SDS011;22740;52.182;8.780;2023-12-07T02:31:32;156.25;;;144.15;;
36789;SDS011;22740;52.182;8.780;2023-12-07T02:37:42;160.95;;;148.18;;
36789;SDS011;22740;52.182;8.780;2023-12-07T02:43:50;160.35;;;147.73;;
36789;SDS011;22740;52.182;8.780;2023-12-07T02:49:53;167.88;;;154.82;;
36789;SDS011;22740;52.182;8.780;2023-12-07T02:55:56;165.10;;;152.43;;
36789;SDS011;22740;52.182;8.780;2023-12-07T03:01:58;163.80;;;150.77;;
36789;SDS011;22740;52.182;8.780;2023-12-07T03:08:01;166.95;;;153.07;;
36789;SDS011;22740;52.182;8.780;2023-12-07T03:14:08;161.20;;;148.23;;
36789;SDS011;22740;52.182;8.780;2023-12-07T03:20:12;155.73;;;143.23;;
36789;SDS011;22740;52.182;8.780;2023-12-07T03:26:17;162.52;;;149.45;;
36789;SDS011;22740;52.182;8.780;2023-12-07T03:32:22;160.50;;;147.80;;
36789;SDS011;22740;52.182;8.780;2023-12-07T03:38:26;158.32;;;145.48;;
36789;SDS011;22740;52.182;8.780;2023-12-07T03:44:32;159.93;;;146.88;;
36789;SDS011;22740;52.182;8.780;2023-12-07T03:50:36;159.30;;;146.63;;
36789;SDS011;22740;52.182;8.780;2023-12-07T03:56:42;154.52;;;142.20;;
36789;SDS011;22740;52.182;8.780;2023-12-07T04:02:49;156.68;;;143.75;;
36789;SDS011;22740;52.182;8.780;2023-12-07T04:08:52;146.07;;;134.23;;
36789;SDS011;22740;52.182;8.780;2023-12-07T04:14:54;141.55;;;130.20;;
36789;SDS011;22740;52.182;8.780;2023-12-07T04:20:56;152.50;;;140.25;;
36789;SDS011;22740;52.182;8.780;2023-12-07T04:26:58;145.90;;;134.27;;
36789;SDS011;22740;52.182;8.780;2023-12-07T04:33:00;144.48;;;132.80;;
36789;SDS011;22740;52.182;8.780;2023-12-07T04:39:03;143.45;;;131.30;;
36789;SDS011;22740;52.182;8.780;2023-12-07T04:45:05;140.65;;;129.07;;
36789;SDS011;22740;52.182;8.780;2023-12-07T04:51:08;138.88;;;127.53;;
36789;SDS011;22740;52.182;8.780;2023-12-07T04:57:10;133.23;;;122.40;;
36789;SDS011;22740;52.182;8.780;2023-12-07T05:03:12;133.45;;;122.35;;
36789;SDS011;22740;52.182;8.780;2023-12-07T05:09:14;128.30;;;117.30;;
36789;SDS011;22740;52.182;8.780;2023-12-07T05:15:16;125.20;;;114.47;;
36789;SDS011;22740;52.182;8.780;2023-12-07T05:21:19;128.48;;;117.30;;
36789;SDS011;22740;52.182;8.780;2023-12-07T05:27:22;117.80;;;107.75;;
36789;SDS011;22740;52.182;8.780;2023-12-07T05:33:24;125.72;;;114.63;;
36789;SDS011;22740;52.182;8.780;2023-12-07T05:39:27;139.88;;;127.20;;
36789;SDS011;22740;52.182;8.780;2023-12-07T05:45:29;137.93;;;125.72;;
36789;SDS011;22740;52.182;8.780;2023-12-07T05:51:31;139.73;;;127.68;;
36789;SDS011;22740;52.182;8.780;2023-12-07T05:57:33;138.02;;;125.47;;
36789;SDS011;22740;52.182;8.780;2023-12-07T06:03:36;136.68;;;123.97;;
36789;SDS011;22740;52.182;8.780;2023-12-07T06:09:38;135.40;;;123.13;;
36789;SDS011;22740;52.182;8.780;2023-12-07T06:15:41;136.55;;;123.63;;
36789;SDS011;22740;52.182;8.780;2023-12-07T06:21:43;137.80;;;124.80;;
36789;SDS011;22740;52.182;8.780;2023-12-07T06:27:46;128.65;;;116.45;;
36789;SDS011;22740;52.182;8.780;2023-12-07T06:33:48;126.65;;;114.55;;
36789;SDS011;22740;52.182;8.780;2023-12-07T06:39:50;129.45;;;117.25;;
36789;SDS011;22740;52.182;8.780;2023-12-07T06:45:52;132.73;;;120.80;;
36789;SDS011;22740;52.182;8.780;2023-12-07T06:51:54;132.85;;;120.75;;
36789;SDS011;22740;52.182;8.780;2023-12-07T06:57:56;134.70;;;121.93;;
36789;SDS011;22740;52.182;8.780;2023-12-07T07:03:59;134.80;;;122.22;;
36789;SDS011;22740;52.182;8.780;2023-12-07T07:10:02;132.02;;;119.43;;
36789;SDS011;22740;52.182;8.780;2023-12-07T07:16:05;130.52;;;118.10;;
36789;SDS011;22740;52.182;8.780;2023-12-07T07:22:09;132.15;;;119.47;;
36789;SDS011;22740;52.182;8.780;2023-12-07T07:28:11;140.75;;;127.28;;
36789;SDS011;22740;52.182;8.780;2023-12-07T07:34:13;141.38;;;127.97;;
36789;SDS011;22740;52.182;8.780;2023-12-07T07:40:15;142.60;;;129.32;;
36789;SDS011;22740;52.182;8.780;2023-12-07T07:46:17;146.95;;;133.40;;
36789;SDS011;22740;52.182;8.780;2023-12-07T07:52:19;146.48;;;133.07;;
36789;SDS011;22740;52.182;8.780;2023-12-07T07:58:22;147.15;;;133.20;;
36789;SDS011;22740;52.182;8.780;2023-12-07T08:04:25;153.38;;;139.65;;
36789;SDS011;22740;52.182;8.780;2023-12-07T08:10:27;163.73;;;149.20;;
36789;SDS011;22740;52.182;8.780;2023-12-07T08:16:29;157.40;;;142.75;;
36789;SDS011;22740;52.182;8.780;2023-12-07T08:22:31;155.52;;;140.48;;
36789;SDS011;22740;52.182;8.780;2023-12-07T08:28:33;151.00;;;137.02;;
36789;SDS011;22740;52.182;8.780;2023-12-07T08:34:35;150.68;;;136.65;;
36789;SDS011;22740;52.182;8.780;2023-12-07T08:40:38;155.13;;;140.25;;
36789;SDS011;22740;52.182;8.780;2023-12-07T08:46:40;152.88;;;138.10;;
36789;SDS011;22740;52.182;8.780;2023-12-07T08:52:46;150.55;;;135.60;;
36789;SDS011;22740;52.182;8.780;2023-12-07T08:58:57;154.27;;;139.15;;
36789;SDS011;22740;52.182;8.780;2023-12-07T09:04:59;153.98;;;138.85;;
36789;SDS011;22740;52.182;8.780;2023-12-07T09:11:01;153.23;;;138.48;;
36789;SDS011;22740;52.182;8.780;2023-12-07T09:17:03;162.25;;;146.70;;
36789;SDS011;22740;52.182;8.780;2023-12-07T09:23:05;160.05;;;144.77;;
36789;SDS011;22740;52.182;8.780;2023-12-07T09:29:07;158.27;;;142.68;;
36789;SDS011;22740;52.182;8.780;2023-12-07T09:35:10;156.60;;;141.20;;
36789;SDS011;22740;52.182;8.780;2023-12-07T09:41:22;157.82;;;142.65;;
36789;SDS011;22740;52.182;8.780;2023-12-07T09:47:29;160.32;;;145.13;;
36789;SDS011;22740;52.182;8.780;2023-12-07T09:53:38;161.18;;;145.60;;
36789;SDS011;22740;52.182;8.780;2023-12-07T09:59:43;159.95;;;144.43;;
36789;SDS011;22740;52.182;8.780;2023-12-07T10:05:55;153.55;;;138.82;;
36789;SDS011;22740;52.182;8.780;2023-12-07T10:12:02;151.80;;;137.75;;
36789;SDS011;22740;52.182;8.780;2023-12-07T10:18:05;158.33;;;143.80;;
36789;SDS011;22740;52.182;8.780;2023-12-07T10:24:09;154.05;;;139.48;;
36789;SDS011;22740;52.182;8.780;2023-12-07T10:30:12;155.52;;;141.43;;
36789;SDS011;22740;52.182;8.780;2023-12-07T10:36:14;161.15;;;146.20;;
36789;SDS011;22740;52.182;8.780;2023-12-07T10:42:16;165.45;;;150.20;;
36789;SDS011;22740;52.182;8.780;2023-12-07T10:48:20;158.00;;;143.53;;
36789;SDS011;22740;52.182;8.780;2023-12-07T10:54:22;160.82;;;145.50;;
36789;SDS011;22740;52.182;8.780;2023-12-07T11:00:32;153.23;;;139.27;;
36789;SDS011;22740;52.182;8.780;2023-12-07T11:06:46;149.05;;;135.50;;
36789;SDS011;22740;52.182;8.780;2023-12-07T11:25:42;141.65;;;129.68;;
36789;SDS011;22740;52.182;8.780;2023-12-07T11:31:48;122.88;;;112.88;;
36789;SDS011;22740;52.182;8.780;2023-12-07T11:38:09;118.18;;;108.47;;
36789;SDS011;22740;52.182;8.780;2023-12-07T11:44:17;110.47;;;101.18;;
36789;SDS011;22740;52.182;8.780;2023-12-07T11:50:19;113.35;;;104.45;;
36789;SDS011;22740;52.182;8.780;2023-12-07T11:56:22;116.55;;;107.25;;
36789;SDS011;22740;52.182;8.780;2023-12-07T12:02:23;103.82;;;95.68;;
36789;SDS011;22740;52.182;8.780;2023-12-07T12:08:27;87.47;;;80.95;;
36789;SDS011;22740;52.182;8.780;2023-12-07T12:14:28;112.85;;;104.25;;
36789;SDS011;22740;52.182;8.780;2023-12-07T12:20:31;102.05;;;94.00;;
36789;SDS011;22740;52.182;8.780;2023-12-07T12:26:34;110.97;;;101.78;;
36789;SDS011;22740;52.182;8.780;2023-12-07T12:32:43;102.80;;;94.60;;
36789;SDS011;22740;52.182;8.780;2023-12-07T12:38:46;104.15;;;95.82;;
36789;SDS011;22740;52.182;8.780;2023-12-07T12:44:50;103.67;;;94.97;;
36789;SDS011;22740;52.182;8.780;2023-12-07T12:50:52;93.25;;;85.95;;
36789;SDS011;22740;52.182;8.780;2023-12-07T12:56:55;94.20;;;86.88;;
36789;SDS011;22740;52.182;8.780;2023-12-07T13:02:57;98.35;;;90.63;;
36789;SDS011;22740;52.182;8.780;2023-12-07T13:08:59;99.88;;;92.13;;
36789;SDS011;22740;52.182;8.780;2023-12-07T13:15:01;106.18;;;98.43;;
36789;SDS011;22740;52.182;8.780;2023-12-07T13:21:03;105.68;;;97.78;;
36789;SDS011;22740;52.182;8.780;2023-12-07T13:27:08;110.38;;;101.78;;
36789;SDS011;22740;52.182;8.780;2023-12-07T13:33:10;112.55;;;103.68;;
36789;SDS011;22740;52.182;8.780;2023-12-07T13:39:27;122.15;;;112.45;;
36789;SDS011;22740;52.182;8.780;2023-12-07T13:51:34;112.78;;;103.40;;
36789;SDS011;22740;52.182;8.780;2023-12-07T13:57:37;121.70;;;110.90;;
36789;SDS011;22740;52.182;8.780;2023-12-07T14:03:39;115.78;;;105.78;;
36789;SDS011;22740;52.182;8.780;2023-12-07T14:09:44;120.65;;;110.18;;
36789;SDS011;22740;52.182;8.780;2023-12-07T14:15:58;122.63;;;111.88;;
36789;SDS011;22740;52.182;8.780;2023-12-07T14:22:15;117.85;;;107.22;;
36789;SDS011;22740;52.182;8.780;2023-12-07T14:28:18;123.60;;;112.93;;
36789;SDS011;22740;52.182;8.780;2023-12-07T14:34:20;131.98;;;120.50;;
36789;SDS011;22740;52.182;8.780;2023-12-07T14:40:34;136.75;;;124.78;;
36789;SDS011;22740;52.182;8.780;2023-12-07T14:46:37;132.38;;;120.90;;
36789;SDS011;22740;52.182;8.780;2023-12-07T14:52:40;133.00;;;121.53;;
36789;SDS011;22740;52.182;8.780;2023-12-07T14:58:42;133.15;;;121.57;;
36789;SDS011;22740;52.182;8.780;2023-12-07T15:04:44;128.00;;;116.80;;
36789;SDS011;22740;52.182;8.780;2023-12-07T15:10:48;128.35;;;117.05;;
36789;SDS011;22740;52.182;8.780;2023-12-07T15:16:53;126.18;;;114.50;;
36789;SDS011;22740;52.182;8.780;2023-12-07T15:22:55;112.88;;;102.35;;
36789;SDS011;22740;52.182;8.780;2023-12-07T15:28:58;111.95;;;102.00;;
36789;SDS011;22740;52.182;8.780;2023-12-07T15:35:01;110.95;;;100.70;;
36789;SDS011;22740;52.182;8.780;2023-12-07T15:41:05;104.00;;;94.20;;
36789;SDS011;22740;52.182;8.780;2023-12-07T15:47:08;108.80;;;99.65;;
36789;SDS011;22740;52.182;8.780;2023-12-07T15:53:10;105.50;;;96.07;;
36789;SDS011;22740;52.182;8.780;2023-12-07T15:59:12;102.47;;;93.57;;
36789;SDS011;22740;52.182;8.780;2023-12-07T16:05:14;105.95;;;97.00;;
36789;SDS011;22740;52.182;8.780;2023-12-07T16:11:16;100.68;;;92.28;;
36789;SDS011;22740;52.182;8.780;2023-12-07T16:17:18;100.75;;;92.15;;
36789;SDS011;22740;52.182;8.780;2023-12-07T16:23:20;101.47;;;92.85;;
36789;SDS011;22740;52.182;8.780;2023-12-07T16:29:22;92.95;;;84.63;;
36789;SDS011;22740;52.182;8.780;2023-12-07T16:35:24;94.40;;;85.85;;
36789;SDS011;22740;52.182;8.780;2023-12-07T16:41:27;88.07;;;79.78;;
36789;SDS011;22740;52.182;8.780;2023-12-07T16:47:38;92.97;;;84.38;;
36789;SDS011;22740;52.182;8.780;2023-12-07T16:53:40;96.38;;;88.22;;
36789;SDS011;22740;52.182;8.780;2023-12-07T16:59:42;94.50;;;86.30;;
36789;SDS011;22740;52.182;8.780;2023-12-07T17:05:44;95.03;;;87.00;;
36789;SDS011;22740;52.182;8.780;2023-12-07T17:11:46;95.43;;;87.55;;
36789;SDS011;22740;52.182;8.780;2023-12-07T17:17:49;94.68;;;86.93;;
36789;SDS011;22740;52.182;8.780;2023-12-07T17:23:51;94.85;;;87.28;;
36789;SDS011;22740;52.182;8.780;2023-12-07T17:29:53;93.78;;;86.30;;
36789;SDS011;22740;52.182;8.780;2023-12-07T17:35:55;88.90;;;81.72;;
36789;SDS011;22740;52.182;8.780;2023-12-07T17:41:57;91.72;;;84.50;;
36789;SDS011;22740;52.182;8.780;2023-12-07T17:47:59;89.80;;;82.80;;
36789;SDS011;22740;52.182;8.780;2023-12-07T17:54:02;91.35;;;84.25;;
36789;SDS011;22740;52.182;8.780;2023-12-07T18:00:05;90.38;;;83.18;;
36789;SDS011;22740;52.182;8.780;2023-12-07T18:06:07;95.07;;;86.88;;
36789;SDS011;22740;52.182;8.780;2023-12-07T18:12:10;93.95;;;86.25;;
36789;SDS011;22740;52.182;8.780;2023-12-07T18:18:13;104.13;;;93.68;;
36789;SDS011;22740;52.182;8.780;2023-12-07T18:24:15;96.65;;;88.25;;
36789;SDS011;22740;52.182;8.780;2023-12-07T18:30:17;94.82;;;86.60;;
36789;SDS011;22740;52.182;8.780;2023-12-07T18:36:19;96.25;;;87.97;;
36789;SDS011;22740;52.182;8.780;2023-12-07T18:42:21;92.72;;;84.95;;
36789;SDS011;22740;52.182;8.780;2023-12-07T18:48:23;90.18;;;82.57;;
36789;SDS011;22740;52.182;8.780;2023-12-07T18:54:26;90.53;;;82.90;;
36789;SDS011;22740;52.182;8.780;2023-12-07T19:00:29;91.40;;;83.93;;
36789;SDS011;22740;52.182;8.780;2023-12-07T19:06:33;90.75;;;82.95;;
36789;SDS011;22740;52.182;8.780;2023-12-07T19:12:35;89.13;;;81.57;;
36789;SDS011;22740;52.182;8.780;2023-12-07T19:18:37;89.55;;;81.78;;
36789;SDS011;22740;52.182;8.780;2023-12-07T19:24:39;90.45;;;82.38;;
36789;SDS011;22740;52.182;8.780;2023-12-07T19:30:41;89.32;;;81.93;;
36789;SDS011;22740;52.182;8.780;2023-12-07T19:36:43;87.93;;;80.32;;
36789;SDS011;22740;52.182;8.780;2023-12-07T19:42:45;89.82;;;82.13;;
36789;SDS011;22740;52.182;8.780;2023-12-07T19:48:47;90.65;;;83.18;;
36789;SDS011;22740;52.182;8.780;2023-12-07T19:54:50;92.05;;;84.35;;
36789;SDS011;22740;52.182;8.780;2023-12-07T20:00:52;89.40;;;82.13;;
36789;SDS011;22740;52.182;8.780;2023-12-07T20:06:55;91.85;;;84.20;;
36789;SDS011;22740;52.182;8.780;2023-12-07T20:12:57;95.97;;;88.03;;
36789;SDS011;22740;52.182;8.780;2023-12-07T20:18:59;93.97;;;86.57;;
36789;SDS011;22740;52.182;8.780;2023-12-07T20:25:02;95.30;;;87.78;;
36789;SDS011;22740;52.182;8.780;2023-12-07T20:31:05;100.30;;;92.20;;
36789;SDS011;22740;52.182;8.780;2023-12-07T20:37:07;95.90;;;88.18;;
36789;SDS011;22740;52.182;8.780;2023-12-07T20:43:09;96.55;;;88.78;;
36789;SDS011;22740;52.182;8.780;2023-12-07T20:49:11;96.55;;;88.65;;
36789;SDS011;22740;52.182;8.780;2023-12-07T20:55:13;97.07;;;89.47;;
36789;SDS011;22740;52.182;8.780;2023-12-07T21:01:18;94.28;;;86.85;;
36789;SDS011;22740;52.182;8.780;2023-12-07T21:07:22;100.70;;;92.90;;
36789;SDS011;22740;52.182;8.780;2023-12-07T21:13:25;97.82;;;90.22;;
36789;SDS011;22740;52.182;8.780;2023-12-07T21:19:27;102.53;;;94.22;;
36789;SDS011;22740;52.182;8.780;2023-12-07T21:25:31;101.13;;;93.20;;
36789;SDS011;22740;52.182;8.780;2023-12-07T21:31:33;101.22;;;93.13;;
36789;SDS011;22740;52.182;8.780;2023-12-07T21:37:35;103.10;;;94.97;;
36789;SDS011;22740;52.182;8.780;2023-12-07T21:43:38;96.35;;;88.25;;
36789;SDS011;22740;52.182;8.780;2023-12-07T21:49:40;97.60;;;89.80;;
36789;SDS011;22740;52.182;8.780;2023-12-07T21:55:42;96.28;;;88.13;;
36789;SDS011;22740;52.182;8.780;2023-12-07T22:01:44;96.70;;;88.93;;
36789;SDS011;22740;52.182;8.780;2023-12-07T22:07:46;99.32;;;91.13;;
36789;SDS011;22740;52.182;8.780;2023-12-07T22:13:51;97.88;;;89.75;;
36789;SDS011;22740;52.182;8.780;2023-12-07T22:19:55;98.57;;;90.75;;
36789;SDS011;22740;52.182;8.780;2023-12-07T22:26:00;99.20;;;91.00;;
36789;SDS011;22740;52.182;8.780;2023-12-07T22:32:04;96.57;;;88.53;;
36789;SDS011;22740;52.182;8.780;2023-12-07T22:38:07;102.43;;;94.50;;
36789;SDS011;22740;52.182;8.780;2023-12-07T22:44:12;100.30;;;92.50;;
36789;SDS011;22740;52.182;8.780;2023-12-07T22:50:15;101.70;;;93.70;;
36789;SDS011;22740;52.182;8.780;2023-12-07T22:56:22;103.57;;;95.38;;
36789;SDS011;22740;52.182;8.780;2023-12-07T23:02:23;101.43;;;93.57;;
36789;SDS011;22740;52.182;8.780;2023-12-07T23:08:25;101.40;;;93.45;;
36789;SDS011;22740;52.182;8.780;2023-12-07T23:14:28;106.57;;;98.28;;
36789;SDS011;22740;52.182;8.780;2023-12-07T23:20:30;103.70;;;95.60;;
36789;SDS011;22740;52.182;8.780;2023-12-07T23:26:34;104.00;;;96.10;;
36789;SDS011;22740;52.182;8.780;2023-12-07T23:32:36;105.65;;;97.57;;
36789;SDS011;22740;52.182;8.780;2023-12-07T23:38:38;106.97;;;99.18;;
36789;SDS011;22740;52.182;8.780;2023-12-07T23:44:40;107.43;;;99.82;;
36789;SDS011;22740;52.182;8.780;2023-12-07T23:50:43;107.15;;;99.35;;
36789;SDS011;22740;52.182;8.780;2023-12-07T23:56:46;111.03;;;103.10;;
